createdAt,value
2019-01-19T00:00:56.600Z,1014.19
2019-01-19T00:01:56.570Z,1014.17
2019-01-19T00:02:56.558Z,1014.15
2019-01-19T00:03:56.584Z,1014.15
2019-01-19T00:04:56.539Z,1014.11
2019-01-19T00:05:56.527Z,1014.12
2019-01-19T00:06:56.512Z,1014.11
2019-01-19T00:07:56.506Z,1014.10
2019-01-19T00:08:56.492Z,1014.11
2019-01-19T00:09:56.506Z,1014.07
2019-01-19T00:10:56.477Z,1014.07
2019-01-19T00:11:56.477Z,1014.03
2019-01-19T00:12:56.489Z,1013.99
2019-01-19T00:13:56.461Z,1014.01
2019-01-19T00:14:56.458Z,1013.98
2019-01-19T00:15:56.418Z,1014.02
2019-01-19T00:16:56.426Z,1014.01
2019-01-19T00:17:56.396Z,1014.01
2019-01-19T00:18:56.393Z,1014.00
2019-01-19T00:19:56.424Z,1013.95
2019-01-19T00:20:56.383Z,1013.99
2019-01-19T00:21:56.359Z,1014.00
2019-01-19T00:22:56.350Z,1013.99
2019-01-19T00:23:56.332Z,1014.04
2019-01-19T00:24:56.376Z,1013.99
2019-01-19T00:25:56.315Z,1014.00
2019-01-19T00:26:56.302Z,1014.00
2019-01-19T00:27:56.320Z,1014.04
2019-01-19T00:28:56.288Z,1014.00
2019-01-19T00:29:56.289Z,1014.02
2019-01-19T00:30:56.285Z,1013.95
2019-01-19T00:31:56.251Z,1013.97
2019-01-19T00:32:56.245Z,1013.96
2019-01-19T00:33:56.247Z,1013.96
2019-01-19T00:34:56.230Z,1013.92
2019-01-19T00:35:56.237Z,1013.92
2019-01-19T00:36:56.202Z,1013.93
2019-01-19T00:37:56.189Z,1013.92
2019-01-19T00:38:56.184Z,1013.93
2019-01-19T00:39:56.168Z,1013.92
2019-01-19T00:40:56.176Z,1013.95
2019-01-19T00:41:56.156Z,1013.91
2019-01-19T00:42:56.142Z,1013.88
2019-01-19T00:43:56.126Z,1013.87
2019-01-19T00:44:56.122Z,1013.90
2019-01-19T00:45:56.123Z,1013.89
2019-01-19T00:46:56.096Z,1013.87
2019-01-19T00:47:56.088Z,1013.89
2019-01-19T00:48:56.077Z,1013.87
2019-01-19T00:49:56.065Z,1013.87
2019-01-19T00:50:56.072Z,1013.93
2019-01-19T00:51:56.055Z,1013.86
2019-01-19T00:52:56.076Z,1013.86
2019-01-19T00:53:56.052Z,1013.92
2019-01-19T00:54:56.013Z,1013.89
2019-01-19T00:55:56.025Z,1013.88
2019-01-19T00:56:55.998Z,1013.88
2019-01-19T00:57:55.984Z,1013.86
2019-01-19T00:59:04.777Z,1013.88
2019-01-19T00:59:55.965Z,1013.88
2019-01-19T01:00:56.002Z,1013.88
2019-01-19T01:01:55.950Z,1013.85
2019-01-19T01:02:55.922Z,1013.88
2019-01-19T01:03:55.918Z,1013.85
2019-01-19T01:04:55.907Z,1013.86
2019-01-19T01:05:55.902Z,1013.87
2019-01-19T01:06:55.909Z,1013.85
2019-01-19T01:07:55.902Z,1013.86
2019-01-19T01:08:55.863Z,1013.85
2019-01-19T01:09:55.888Z,1013.81
2019-01-19T01:10:55.847Z,1013.83
2019-01-19T01:11:55.884Z,1013.83
2019-01-19T01:12:55.854Z,1013.90
2019-01-19T01:13:55.821Z,1013.84
2019-01-19T01:14:55.828Z,1013.84
2019-01-19T01:15:55.834Z,1013.86
2019-01-19T01:16:55.816Z,1013.85
2019-01-19T01:17:55.777Z,1013.81
2019-01-19T01:18:55.761Z,1013.78
2019-01-19T01:19:55.743Z,1013.82
2019-01-19T01:20:55.732Z,1013.80
2019-01-19T01:21:55.746Z,1013.85
2019-01-19T01:22:55.717Z,1013.81
2019-01-19T01:23:55.714Z,1013.83
2019-01-19T01:24:55.738Z,1013.80
2019-01-19T01:25:55.682Z,1013.78
2019-01-19T01:26:55.689Z,1013.83
2019-01-19T01:27:55.669Z,1013.82
2019-01-19T01:28:55.650Z,1013.77
2019-01-19T01:29:55.645Z,1013.84
2019-01-19T01:30:55.630Z,1013.82
2019-01-19T01:31:55.638Z,1013.78
2019-01-19T01:33:04.162Z,1013.85
2019-01-19T01:33:55.597Z,1013.80
2019-01-19T01:34:55.589Z,1013.83
2019-01-19T01:35:55.608Z,1013.85
2019-01-19T01:36:55.599Z,1013.86
2019-01-19T01:37:55.563Z,1013.88
2019-01-19T01:38:55.550Z,1013.89
2019-01-19T01:39:55.539Z,1013.90
2019-01-19T01:40:55.525Z,1013.86
2019-01-19T01:41:55.533Z,1013.85
2019-01-19T01:42:55.508Z,1013.87
2019-01-19T01:43:55.504Z,1013.85
2019-01-19T01:44:55.492Z,1013.84
2019-01-19T01:45:55.483Z,1013.83
2019-01-19T01:46:55.484Z,1013.86
2019-01-19T01:47:55.458Z,1013.84
2019-01-19T01:48:55.444Z,1013.85
2019-01-19T01:49:55.434Z,1013.85
2019-01-19T01:50:55.422Z,1013.82
2019-01-19T01:51:55.435Z,1013.80
2019-01-19T01:52:55.409Z,1013.83
2019-01-19T01:53:55.390Z,1013.84
2019-01-19T01:54:55.410Z,1013.82
2019-01-19T01:55:55.387Z,1013.79
2019-01-19T01:57:05.540Z,1013.73
2019-01-19T01:58:02.894Z,1013.73
2019-01-19T01:59:02.881Z,1013.69
2019-01-19T02:00:02.867Z,1013.74
2019-01-19T02:01:02.868Z,1013.72
2019-01-19T02:02:02.868Z,1013.71
2019-01-19T02:02:55.325Z,1013.66
2019-01-19T02:03:55.284Z,1013.67
2019-01-19T02:04:55.271Z,1013.66
2019-01-19T02:05:55.269Z,1013.70
2019-01-19T02:06:55.254Z,1013.67
2019-01-19T02:07:55.267Z,1013.70
2019-01-19T02:08:55.262Z,1013.62
2019-01-19T02:09:55.221Z,1013.66
2019-01-19T02:10:55.216Z,1013.66
2019-01-19T02:11:55.205Z,1013.64
2019-01-19T02:12:55.211Z,1013.61
2019-01-19T02:13:55.181Z,1013.67
2019-01-19T02:14:55.172Z,1013.65
2019-01-19T02:15:55.163Z,1013.60
2019-01-19T02:16:55.184Z,1013.59
2019-01-19T02:17:55.193Z,1013.55
2019-01-19T02:18:55.133Z,1013.59
2019-01-19T02:19:55.135Z,1013.58
2019-01-19T02:20:55.114Z,1013.54
2019-01-19T02:21:55.212Z,1013.55
2019-01-19T02:22:55.177Z,1013.54
2019-01-19T02:23:55.127Z,1013.55
2019-01-19T02:24:55.068Z,1013.50
2019-01-19T02:25:55.056Z,1013.53
2019-01-19T02:26:55.055Z,1013.58
2019-01-19T02:27:55.039Z,1013.54
2019-01-19T02:28:55.043Z,1013.56
2019-01-19T02:29:55.025Z,1013.55
2019-01-19T02:30:55.002Z,1013.55
2019-01-19T02:31:54.991Z,1013.55
2019-01-19T02:32:54.983Z,1013.53
2019-01-19T02:33:55.018Z,1013.52
2019-01-19T02:34:54.990Z,1013.50
2019-01-19T02:35:54.951Z,1013.48
2019-01-19T02:36:54.944Z,1013.45
2019-01-19T02:37:54.938Z,1013.44
2019-01-19T02:38:54.941Z,1013.45
2019-01-19T02:39:54.914Z,1013.40
2019-01-19T02:40:54.907Z,1013.40
2019-01-19T02:41:54.898Z,1013.44
2019-01-19T02:42:54.877Z,1013.41
2019-01-19T02:43:54.903Z,1013.42
2019-01-19T02:44:54.856Z,1013.41
2019-01-19T02:45:54.843Z,1013.39
2019-01-19T02:46:54.844Z,1013.35
2019-01-19T02:47:54.820Z,1013.40
2019-01-19T02:48:54.836Z,1013.37
2019-01-19T02:49:54.801Z,1013.36
2019-01-19T02:50:54.787Z,1013.37
2019-01-19T02:51:54.791Z,1013.32
2019-01-19T02:52:54.779Z,1013.34
2019-01-19T02:53:54.759Z,1013.32
2019-01-19T02:54:54.768Z,1013.31
2019-01-19T02:55:54.735Z,1013.32
2019-01-19T02:56:54.727Z,1013.31
2019-01-19T02:57:54.718Z,1013.28
2019-01-19T02:58:54.708Z,1013.27
2019-01-19T02:59:54.753Z,1013.27
2019-01-19T03:00:54.715Z,1013.26
2019-01-19T03:01:54.674Z,1013.19
2019-01-19T03:02:54.666Z,1013.20
2019-01-19T03:03:54.673Z,1013.25
2019-01-19T03:04:54.673Z,1013.24
2019-01-19T03:05:56.244Z,1013.21
2019-01-19T03:06:54.622Z,1013.20
2019-01-19T03:07:54.651Z,1013.18
2019-01-19T03:08:54.607Z,1013.25
2019-01-19T03:09:54.618Z,1013.24
2019-01-19T03:10:54.590Z,1013.19
2019-01-19T03:11:54.574Z,1013.19
2019-01-19T03:12:54.583Z,1013.09
2019-01-19T03:13:54.560Z,1013.15
2019-01-19T03:14:54.563Z,1013.10
2019-01-19T03:15:54.544Z,1013.11
2019-01-19T03:16:54.608Z,1013.10
2019-01-19T03:17:54.520Z,1013.08
2019-01-19T03:18:54.503Z,1013.15
2019-01-19T03:19:54.530Z,1013.11
2019-01-19T03:20:54.479Z,1013.09
2019-01-19T03:21:54.475Z,1013.13
2019-01-19T03:22:54.460Z,1013.13
2019-01-19T03:23:54.466Z,1013.12
2019-01-19T03:24:54.434Z,1013.10
2019-01-19T03:25:54.451Z,1013.10
2019-01-19T03:26:54.419Z,1013.09
2019-01-19T03:27:54.405Z,1013.11
2019-01-19T03:28:54.399Z,1013.07
2019-01-19T03:29:54.389Z,1013.05
2019-01-19T03:30:54.441Z,1013.06
2019-01-19T03:31:54.369Z,1013.07
2019-01-19T03:32:54.393Z,1013.02
2019-01-19T03:33:54.355Z,1013.04
2019-01-19T03:34:54.331Z,1013.03
2019-01-19T03:35:54.344Z,1013.04
2019-01-19T03:36:54.310Z,1013.04
2019-01-19T03:39:22.704Z,1013.03
2019-01-19T03:41:43.894Z,1013.06
2019-01-19T03:42:54.894Z,1012.98
2019-01-19T03:43:54.590Z,1012.96
2019-01-19T03:44:43.851Z,1012.93
2019-01-19T03:45:53.839Z,1012.90
2019-01-19T03:46:43.828Z,1012.91
2019-01-19T03:47:53.399Z,1012.89
2019-01-19T03:48:51.345Z,1012.89
2019-01-19T03:49:51.338Z,1012.90
2019-01-19T03:50:55.414Z,1012.91
2019-01-19T03:51:51.320Z,1012.94
2019-01-19T03:52:51.315Z,1012.94
2019-01-19T03:53:51.296Z,1012.91
2019-01-19T03:54:51.301Z,1012.89
2019-01-19T03:55:51.278Z,1012.89
2019-01-19T03:56:54.671Z,1012.86
2019-01-19T03:57:51.261Z,1012.86
2019-01-19T03:58:51.243Z,1012.89
2019-01-19T03:59:54.282Z,1012.85
2019-01-19T04:00:53.506Z,1012.86
2019-01-19T04:01:53.384Z,1012.87
2019-01-19T04:02:53.078Z,1012.87
2019-01-19T04:03:51.205Z,1012.85
2019-01-19T04:04:52.470Z,1012.83
2019-01-19T04:05:51.176Z,1012.81
2019-01-19T04:06:43.646Z,1012.84
2019-01-19T04:07:43.607Z,1012.77
2019-01-19T04:08:43.619Z,1012.83
2019-01-19T04:09:51.163Z,1012.80
2019-01-19T04:10:43.584Z,1012.74
2019-01-19T04:11:52.142Z,1012.85
2019-01-19T04:12:51.097Z,1012.83
2019-01-19T04:13:43.558Z,1012.80
2019-01-19T04:14:43.533Z,1012.82
2019-01-19T04:15:43.537Z,1012.80
2019-01-19T04:18:01.319Z,1012.80
2019-01-19T04:21:21.003Z,1012.82
2019-01-19T04:23:31.250Z,1012.81
2019-01-19T04:24:41.231Z,1012.79
2019-01-19T04:28:10.125Z,1012.77
2019-01-19T04:29:17.636Z,1012.77
2019-01-19T04:30:10.070Z,1012.76
2019-01-19T04:31:18.939Z,1012.79
2019-01-19T04:32:18.625Z,1012.75
2019-01-19T04:33:10.095Z,1012.73
2019-01-19T04:34:10.032Z,1012.77
2019-01-19T04:35:10.065Z,1012.74
2019-01-19T04:36:10.070Z,1012.74
2019-01-19T04:37:17.853Z,1012.72
2019-01-19T04:39:26.196Z,1012.74
2019-01-19T04:40:26.159Z,1012.73
2019-01-19T04:41:26.173Z,1012.77
2019-01-19T04:42:26.241Z,1012.69
2019-01-19T04:43:26.146Z,1012.76
2019-01-19T04:44:26.114Z,1012.70
2019-01-19T04:45:26.157Z,1012.72
2019-01-19T04:46:26.094Z,1012.73
2019-01-19T04:47:26.084Z,1012.72
2019-01-19T04:48:26.092Z,1012.70
2019-01-19T04:49:26.062Z,1012.68
2019-01-19T04:50:26.055Z,1012.66
2019-01-19T04:51:26.051Z,1012.65
2019-01-19T04:52:26.037Z,1012.66
2019-01-19T04:53:26.056Z,1012.69
2019-01-19T04:54:34.841Z,1012.63
2019-01-19T04:55:26.006Z,1012.63
2019-01-19T04:56:26.018Z,1012.62
2019-01-19T04:57:34.543Z,1012.66
2019-01-19T04:58:26.037Z,1012.58
2019-01-19T04:59:34.855Z,1012.61
2019-01-19T05:00:25.991Z,1012.63
2019-01-19T05:01:25.981Z,1012.64
2019-01-19T05:02:25.934Z,1012.58
2019-01-19T05:03:25.969Z,1012.58
2019-01-19T05:04:25.912Z,1012.59
2019-01-19T05:05:25.897Z,1012.62
2019-01-19T05:06:30.527Z,1012.58
2019-01-19T05:07:25.906Z,1012.58
2019-01-19T05:08:25.902Z,1012.56
2019-01-19T05:09:25.863Z,1012.55
2019-01-19T05:10:33.399Z,1012.52
2019-01-19T05:11:33.391Z,1012.57
2019-01-19T05:12:33.384Z,1012.53
2019-01-19T05:13:34.704Z,1012.53
2019-01-19T05:14:34.633Z,1012.52
2019-01-19T05:15:25.793Z,1012.59
2019-01-19T05:16:25.785Z,1012.53
2019-01-19T05:17:25.821Z,1012.51
2019-01-19T05:18:25.764Z,1012.51
2019-01-19T05:19:25.776Z,1012.50
2019-01-19T05:20:25.755Z,1012.53
2019-01-19T05:21:25.739Z,1012.46
2019-01-19T05:22:34.537Z,1012.52
2019-01-19T05:23:33.260Z,1012.44
2019-01-19T05:24:25.729Z,1012.39
2019-01-19T05:25:25.686Z,1012.46
2019-01-19T05:26:34.503Z,1012.48
2019-01-19T05:27:25.668Z,1012.44
2019-01-19T05:28:25.662Z,1012.44
2019-01-19T05:29:25.692Z,1012.36
2019-01-19T05:30:25.655Z,1012.35
2019-01-19T05:31:25.625Z,1012.32
2019-01-19T05:32:25.630Z,1012.40
2019-01-19T05:33:33.160Z,1012.33
2019-01-19T05:34:25.609Z,1012.37
2019-01-19T05:35:25.610Z,1012.35
2019-01-19T05:36:25.587Z,1012.31
2019-01-19T05:37:25.611Z,1012.32
2019-01-19T05:38:25.581Z,1012.34
2019-01-19T05:39:25.539Z,1012.32
2019-01-19T05:40:25.557Z,1012.31
2019-01-19T05:41:25.521Z,1012.36
2019-01-19T05:42:25.522Z,1012.35
2019-01-19T05:43:25.506Z,1012.29
2019-01-19T05:44:25.492Z,1012.35
2019-01-19T05:45:25.501Z,1012.38
2019-01-19T05:46:25.502Z,1012.34
2019-01-19T05:47:25.468Z,1012.37
2019-01-19T05:48:25.453Z,1012.37
2019-01-19T05:49:25.455Z,1012.38
2019-01-19T05:50:25.459Z,1012.43
2019-01-19T05:51:25.434Z,1012.41
2019-01-19T05:52:25.412Z,1012.40
2019-01-19T05:53:32.962Z,1012.39
2019-01-19T05:54:25.385Z,1012.37
2019-01-19T05:55:25.396Z,1012.39
2019-01-19T05:56:25.400Z,1012.40
2019-01-19T05:57:25.365Z,1012.37
2019-01-19T05:58:25.343Z,1012.30
2019-01-19T05:59:25.338Z,1012.37
2019-01-19T06:00:25.387Z,1012.30
2019-01-19T06:01:32.857Z,1012.32
2019-01-19T06:02:25.299Z,1012.32
2019-01-19T06:03:25.297Z,1012.38
2019-01-19T06:04:25.283Z,1012.33
2019-01-19T06:05:32.838Z,1012.29
2019-01-19T06:06:25.277Z,1012.36
2019-01-19T06:07:25.249Z,1012.34
2019-01-19T06:08:25.243Z,1012.36
2019-01-19T06:09:25.258Z,1012.35
2019-01-19T06:10:25.222Z,1012.37
2019-01-19T06:11:25.295Z,1012.33
2019-01-19T06:12:25.198Z,1012.38
2019-01-19T06:13:25.222Z,1012.36
2019-01-19T06:14:25.185Z,1012.39
2019-01-19T06:15:25.179Z,1012.39
2019-01-19T06:16:25.210Z,1012.38
2019-01-19T06:17:25.148Z,1012.41
2019-01-19T06:18:25.136Z,1012.37
2019-01-19T06:19:25.132Z,1012.38
2019-01-19T06:20:25.118Z,1012.35
2019-01-19T06:21:25.126Z,1012.40
2019-01-19T06:22:32.638Z,1012.36
2019-01-19T06:23:25.077Z,1012.42
2019-01-19T06:24:25.067Z,1012.41
2019-01-19T06:25:25.079Z,1012.37
2019-01-19T06:26:25.079Z,1012.41
2019-01-19T06:27:25.043Z,1012.41
2019-01-19T06:28:25.031Z,1012.42
2019-01-19T06:29:25.023Z,1012.43
2019-01-19T06:30:25.052Z,1012.42
2019-01-19T06:31:24.999Z,1012.42
2019-01-19T06:32:25.003Z,1012.47
2019-01-19T06:33:24.975Z,1012.45
2019-01-19T06:34:24.979Z,1012.39
2019-01-19T06:35:24.955Z,1012.43
2019-01-19T06:36:24.947Z,1012.51
2019-01-19T06:37:24.955Z,1012.43
2019-01-19T06:38:24.933Z,1012.37
2019-01-19T06:39:24.918Z,1012.40
2019-01-19T06:40:24.904Z,1012.37
2019-01-19T06:41:24.919Z,1012.43
2019-01-19T06:42:24.926Z,1012.45
2019-01-19T06:43:24.883Z,1012.40
2019-01-19T06:44:24.954Z,1012.38
2019-01-19T06:45:24.945Z,1012.40
2019-01-19T06:46:24.904Z,1012.38
2019-01-19T06:47:24.861Z,1012.40
2019-01-19T06:48:24.825Z,1012.42
2019-01-19T06:49:24.813Z,1012.41
2019-01-19T06:50:24.803Z,1012.37
2019-01-19T06:51:24.817Z,1012.36
2019-01-19T06:52:24.792Z,1012.36
2019-01-19T06:53:33.623Z,1012.37
2019-01-19T06:54:24.752Z,1012.32
2019-01-19T06:55:24.748Z,1012.36
2019-01-19T06:56:24.738Z,1012.34
2019-01-19T06:57:24.727Z,1012.37
2019-01-19T06:58:24.752Z,1012.27
2019-01-19T06:59:24.702Z,1012.36
2019-01-19T07:00:24.696Z,1012.35
2019-01-19T07:01:24.685Z,1012.37
2019-01-19T07:02:24.696Z,1012.33
2019-01-19T07:03:24.724Z,1012.29
2019-01-19T07:04:24.652Z,1012.34
2019-01-19T07:05:24.683Z,1012.33
2019-01-19T07:06:24.633Z,1012.33
2019-01-19T07:07:24.673Z,1012.33
2019-01-19T07:08:24.647Z,1012.38
2019-01-19T07:09:24.629Z,1012.35
2019-01-19T07:10:33.854Z,1012.40
2019-01-19T07:11:24.604Z,1012.37
2019-01-19T07:12:24.562Z,1012.36
2019-01-19T07:13:24.577Z,1012.37
2019-01-19T07:14:24.598Z,1012.35
2019-01-19T07:15:24.531Z,1012.38
2019-01-19T07:16:24.522Z,1012.37
2019-01-19T07:17:24.517Z,1012.32
2019-01-19T07:18:24.575Z,1012.32
2019-01-19T07:19:24.522Z,1012.38
2019-01-19T07:20:24.570Z,1012.39
2019-01-19T07:21:24.485Z,1012.36
2019-01-19T07:22:24.460Z,1012.35
2019-01-19T07:23:24.472Z,1012.37
2019-01-19T07:24:24.487Z,1012.40
2019-01-19T07:25:24.426Z,1012.35
2019-01-19T07:26:24.417Z,1012.39
2019-01-19T07:27:24.414Z,1012.39
2019-01-19T07:28:24.409Z,1012.42
2019-01-19T07:29:24.415Z,1012.42
2019-01-19T07:30:24.377Z,1012.41
2019-01-19T07:31:24.366Z,1012.41
2019-01-19T07:32:24.356Z,1012.38
2019-01-19T07:33:24.357Z,1012.41
2019-01-19T07:34:24.376Z,1012.44
2019-01-19T07:35:24.325Z,1012.42
2019-01-19T07:36:24.314Z,1012.45
2019-01-19T07:37:24.316Z,1012.39
2019-01-19T07:38:24.300Z,1012.39
2019-01-19T07:39:24.351Z,1012.42
2019-01-19T07:40:24.277Z,1012.42
2019-01-19T07:41:24.260Z,1012.43
2019-01-19T07:42:24.254Z,1012.48
2019-01-19T07:43:24.243Z,1012.46
2019-01-19T07:44:24.253Z,1012.43
2019-01-19T07:45:31.820Z,1012.45
2019-01-19T07:46:24.242Z,1012.51
2019-01-19T07:47:24.247Z,1012.46
2019-01-19T07:48:24.188Z,1012.49
2019-01-19T07:49:24.206Z,1012.51
2019-01-19T07:50:24.175Z,1012.51
2019-01-19T07:51:25.672Z,1012.50
2019-01-19T07:52:24.154Z,1012.54
2019-01-19T07:53:24.134Z,1012.48
2019-01-19T07:54:24.176Z,1012.49
2019-01-19T07:55:24.138Z,1012.52
2019-01-19T07:56:24.915Z,1012.57
2019-01-19T07:57:31.061Z,1012.52
2019-01-19T07:58:25.080Z,1012.51
2019-01-19T07:59:24.079Z,1012.54
2019-01-19T08:00:24.083Z,1012.52
2019-01-19T08:01:24.066Z,1012.55
2019-01-19T08:02:24.042Z,1012.53
2019-01-19T08:03:24.034Z,1012.52
2019-01-19T08:04:24.018Z,1012.52
2019-01-19T08:05:24.058Z,1012.58
2019-01-19T08:06:23.997Z,1012.65
2019-01-19T08:07:23.993Z,1012.58
2019-01-19T08:08:24.004Z,1012.59
2019-01-19T08:09:23.971Z,1012.53
2019-01-19T08:10:23.987Z,1012.58
2019-01-19T08:11:23.952Z,1012.60
2019-01-19T08:12:23.936Z,1012.60
2019-01-19T08:13:23.976Z,1012.61
2019-01-19T08:14:23.924Z,1012.58
2019-01-19T08:15:23.947Z,1012.59
2019-01-19T08:16:23.910Z,1012.57
2019-01-19T08:17:23.913Z,1012.57
2019-01-19T08:18:23.876Z,1012.59
2019-01-19T08:19:23.899Z,1012.57
2019-01-19T08:20:23.851Z,1012.58
2019-01-19T08:21:23.864Z,1012.57
2019-01-19T08:22:23.832Z,1012.57
2019-01-19T08:23:23.825Z,1012.58
2019-01-19T08:24:23.816Z,1012.55
2019-01-19T08:25:23.836Z,1012.61
2019-01-19T08:26:23.824Z,1012.54
2019-01-19T08:27:23.813Z,1012.55
2019-01-19T08:28:23.772Z,1012.53
2019-01-19T08:29:23.761Z,1012.54
2019-01-19T08:30:23.790Z,1012.53
2019-01-19T08:31:23.767Z,1012.54
2019-01-19T08:32:23.809Z,1012.55
2019-01-19T08:33:23.762Z,1012.56
2019-01-19T08:34:23.706Z,1012.56
2019-01-19T08:35:23.743Z,1012.54
2019-01-19T08:36:23.711Z,1012.53
2019-01-19T08:37:24.509Z,1012.50
2019-01-19T08:38:23.676Z,1012.54
2019-01-19T08:39:23.680Z,1012.54
2019-01-19T08:40:23.645Z,1012.52
2019-01-19T08:41:23.655Z,1012.48
2019-01-19T08:42:23.641Z,1012.54
2019-01-19T08:43:23.617Z,1012.53
2019-01-19T08:44:23.615Z,1012.54
2019-01-19T08:45:23.594Z,1012.55
2019-01-19T08:46:23.620Z,1012.53
2019-01-19T08:47:23.995Z,1012.53
2019-01-19T08:48:23.578Z,1012.52
2019-01-19T08:49:23.572Z,1012.50
2019-01-19T08:50:23.602Z,1012.44
2019-01-19T08:51:23.532Z,1012.48
2019-01-19T08:52:23.563Z,1012.44
2019-01-19T08:53:23.515Z,1012.40
2019-01-19T08:54:23.498Z,1012.40
2019-01-19T08:55:23.496Z,1012.41
2019-01-19T08:56:23.477Z,1012.42
2019-01-19T08:57:23.535Z,1012.42
2019-01-19T08:58:23.458Z,1012.45
2019-01-19T08:59:23.614Z,1012.43
2019-01-19T09:00:23.451Z,1012.45
2019-01-19T09:01:23.429Z,1012.42
2019-01-19T09:02:23.417Z,1012.43
2019-01-19T09:03:23.421Z,1012.46
2019-01-19T09:04:23.401Z,1012.46
2019-01-19T09:05:23.384Z,1012.40
2019-01-19T09:06:23.368Z,1012.37
2019-01-19T09:07:23.359Z,1012.40
2019-01-19T09:08:23.367Z,1012.36
2019-01-19T09:09:23.543Z,1012.42
2019-01-19T09:10:23.328Z,1012.39
2019-01-19T09:11:23.318Z,1012.40
2019-01-19T09:12:23.309Z,1012.41
2019-01-19T09:13:23.322Z,1012.42
2019-01-19T09:14:23.285Z,1012.41
2019-01-19T09:15:23.287Z,1012.42
2019-01-19T09:16:23.266Z,1012.38
2019-01-19T09:17:23.257Z,1012.41
2019-01-19T09:18:23.266Z,1012.38
2019-01-19T09:19:23.238Z,1012.36
2019-01-19T09:20:23.223Z,1012.36
2019-01-19T09:21:23.249Z,1012.37
2019-01-19T09:22:23.205Z,1012.42
2019-01-19T09:23:23.213Z,1012.40
2019-01-19T09:24:23.181Z,1012.34
2019-01-19T09:25:30.757Z,1012.41
2019-01-19T09:26:23.166Z,1012.40
2019-01-19T09:27:23.152Z,1012.35
2019-01-19T09:28:23.142Z,1012.40
2019-01-19T09:29:23.150Z,1012.37
2019-01-19T09:30:23.244Z,1012.42
2019-01-19T09:31:23.115Z,1012.40
2019-01-19T09:32:23.130Z,1012.40
2019-01-19T09:33:23.095Z,1012.39
2019-01-19T09:34:23.112Z,1012.39
2019-01-19T09:35:23.078Z,1012.37
2019-01-19T09:36:23.061Z,1012.40
2019-01-19T09:37:23.044Z,1012.43
2019-01-19T09:38:23.043Z,1012.41
2019-01-19T09:39:23.053Z,1012.43
2019-01-19T09:40:23.024Z,1012.37
2019-01-19T09:41:23.014Z,1012.41
2019-01-19T09:42:22.993Z,1012.37
2019-01-19T09:43:22.979Z,1012.39
2019-01-19T09:44:23.013Z,1012.37
2019-01-19T09:45:22.993Z,1012.39
2019-01-19T09:46:22.958Z,1012.35
2019-01-19T09:47:22.940Z,1012.41
2019-01-19T09:48:22.930Z,1012.41
2019-01-19T09:49:22.936Z,1012.40
2019-01-19T09:50:22.914Z,1012.38
2019-01-19T09:51:22.898Z,1012.40
2019-01-19T09:52:22.895Z,1012.35
2019-01-19T09:53:22.875Z,1012.39
2019-01-19T09:54:22.883Z,1012.45
2019-01-19T09:55:22.856Z,1012.41
2019-01-19T09:56:22.845Z,1012.36
2019-01-19T09:57:22.833Z,1012.33
2019-01-19T09:58:22.850Z,1012.35
2019-01-19T09:59:22.878Z,1012.33
2019-01-19T10:00:22.802Z,1012.29
2019-01-19T10:01:22.793Z,1012.30
2019-01-19T10:02:22.790Z,1012.28
2019-01-19T10:03:22.769Z,1012.28
2019-01-19T10:04:22.780Z,1012.30
2019-01-19T10:05:22.776Z,1012.24
2019-01-19T10:06:22.739Z,1012.22
2019-01-19T10:07:22.727Z,1012.22
2019-01-19T10:08:22.722Z,1012.24
2019-01-19T10:09:22.710Z,1012.23
2019-01-19T10:10:22.729Z,1012.21
2019-01-19T10:11:22.687Z,1012.21
2019-01-19T10:12:22.676Z,1012.15
2019-01-19T10:13:22.683Z,1012.14
2019-01-19T10:14:22.656Z,1012.08
2019-01-19T10:15:22.672Z,1012.12
2019-01-19T10:16:22.647Z,1012.12
2019-01-19T10:17:22.690Z,1012.14
2019-01-19T10:18:22.614Z,1012.13
2019-01-19T10:19:22.632Z,1012.11
2019-01-19T10:20:22.683Z,1012.05
2019-01-19T10:21:22.594Z,1012.09
2019-01-19T10:22:22.656Z,1012.07
2019-01-19T10:23:22.627Z,1012.05
2019-01-19T10:24:22.566Z,1012.07
2019-01-19T10:25:22.581Z,1012.02
2019-01-19T10:26:22.604Z,1012.00
2019-01-19T10:27:22.518Z,1011.97
2019-01-19T10:28:22.507Z,1012.00
2019-01-19T10:29:22.495Z,1011.98
2019-01-19T10:30:22.509Z,1011.98
2019-01-19T10:31:22.489Z,1011.95
2019-01-19T10:32:22.477Z,1011.98
2019-01-19T10:33:22.500Z,1011.96
2019-01-19T10:34:22.456Z,1011.87
2019-01-19T10:35:22.430Z,1011.85
2019-01-19T10:36:22.481Z,1011.87
2019-01-19T10:37:22.413Z,1011.87
2019-01-19T10:38:22.401Z,1011.88
2019-01-19T10:39:22.409Z,1011.87
2019-01-19T10:40:22.379Z,1011.87
2019-01-19T10:41:22.388Z,1011.77
2019-01-19T10:42:22.355Z,1011.86
2019-01-19T10:43:22.356Z,1011.79
2019-01-19T10:44:22.361Z,1011.76
2019-01-19T10:45:22.422Z,1011.75
2019-01-19T10:46:22.375Z,1011.74
2019-01-19T10:47:22.309Z,1011.72
2019-01-19T10:48:22.319Z,1011.73
2019-01-19T10:49:22.328Z,1011.71
2019-01-19T10:50:22.294Z,1011.70
2019-01-19T10:51:22.350Z,1011.62
2019-01-19T10:52:22.281Z,1011.66
2019-01-19T10:53:22.242Z,1011.71
2019-01-19T10:54:22.405Z,1011.62
2019-01-19T10:55:22.586Z,1011.59
2019-01-19T10:56:22.579Z,1011.57
2019-01-19T10:57:22.249Z,1011.61
2019-01-19T10:58:22.195Z,1011.53
2019-01-19T10:59:22.228Z,1011.55
2019-01-19T11:00:22.171Z,1011.54
2019-01-19T11:01:22.159Z,1011.55
2019-01-19T11:02:22.215Z,1011.53
2019-01-19T11:03:22.140Z,1011.53
2019-01-19T11:04:22.130Z,1011.49
2019-01-19T11:05:22.117Z,1011.42
2019-01-19T11:06:22.149Z,1011.48
2019-01-19T11:07:22.165Z,1011.38
2019-01-19T11:08:22.092Z,1011.44
2019-01-19T11:09:22.078Z,1011.42
2019-01-19T11:10:22.080Z,1011.42
2019-01-19T11:11:22.112Z,1011.39
2019-01-19T11:12:22.063Z,1011.38
2019-01-19T11:13:22.098Z,1011.31
2019-01-19T11:14:22.022Z,1011.35
2019-01-19T11:15:22.014Z,1011.29
2019-01-19T11:16:22.013Z,1011.35
2019-01-19T11:17:22.008Z,1011.28
2019-01-19T11:18:21.988Z,1011.25
2019-01-19T11:19:21.977Z,1011.22
2019-01-19T11:20:21.959Z,1011.24
2019-01-19T11:21:21.948Z,1011.22
2019-01-19T11:22:21.958Z,1011.28
2019-01-19T11:23:21.962Z,1011.29
2019-01-19T11:24:21.935Z,1011.23
2019-01-19T11:25:21.904Z,1011.21
2019-01-19T11:26:21.905Z,1011.20
2019-01-19T11:27:29.594Z,1011.18
2019-01-19T11:28:21.953Z,1011.15
2019-01-19T11:29:21.871Z,1011.21
2019-01-19T11:30:21.853Z,1011.20
2019-01-19T11:31:21.925Z,1011.14
2019-01-19T11:32:21.854Z,1011.21
2019-01-19T11:33:21.822Z,1011.16
2019-01-19T11:34:21.826Z,1011.18
2019-01-19T11:35:21.801Z,1011.23
2019-01-19T11:36:21.788Z,1011.14
2019-01-19T11:37:21.803Z,1011.13
2019-01-19T11:38:21.861Z,1011.09
2019-01-19T11:39:21.767Z,1011.10
2019-01-19T11:40:21.783Z,1011.07
2019-01-19T11:41:21.792Z,1011.13
2019-01-19T11:42:21.755Z,1011.08
2019-01-19T11:43:21.718Z,1011.08
2019-01-19T11:44:21.710Z,1011.04
2019-01-19T11:45:21.708Z,1011.03
2019-01-19T11:46:21.686Z,1010.98
2019-01-19T11:47:21.699Z,1010.98
2019-01-19T11:48:21.669Z,1010.96
2019-01-19T11:49:21.702Z,1010.92
2019-01-19T11:50:22.752Z,1010.95
2019-01-19T11:51:21.636Z,1010.90
2019-01-19T11:52:21.640Z,1010.93
2019-01-19T11:53:21.617Z,1010.88
2019-01-19T11:54:21.610Z,1010.93
2019-01-19T11:55:21.601Z,1010.88
2019-01-19T11:56:21.582Z,1010.84
2019-01-19T11:57:21.633Z,1010.80
2019-01-19T11:58:21.559Z,1010.84
2019-01-19T11:59:21.548Z,1010.79
2019-01-19T12:00:21.548Z,1010.83
2019-01-19T12:01:21.574Z,1010.76
2019-01-19T12:02:21.543Z,1010.76
2019-01-19T12:03:21.507Z,1010.79
2019-01-19T12:04:21.497Z,1010.71
2019-01-19T12:05:21.489Z,1010.73
2019-01-19T12:06:21.489Z,1010.70
2019-01-19T12:07:21.490Z,1010.75
2019-01-19T12:08:21.476Z,1010.67
2019-01-19T12:09:21.472Z,1010.68
2019-01-19T12:10:21.440Z,1010.67
2019-01-19T12:11:21.428Z,1010.60
2019-01-19T12:12:21.436Z,1010.63
2019-01-19T12:13:21.403Z,1010.66
2019-01-19T12:14:21.394Z,1010.57
2019-01-19T12:15:21.381Z,1010.53
2019-01-19T12:16:21.374Z,1010.57
2019-01-19T12:17:21.383Z,1010.55